Fedora — SLKU — position and weather

sailwx.info

Track history (hours):
 
Tides and Currents Weather Stations Pressure Air Temp Water Temp Dewpoint Dewpoint Depression Visibility Wind Speed Wind Dir Waves Ship Positions

Fedora

Last reported at 2014-Jul-31 11:31 UTC. Time now 2014-Aug-01 13:51 UTC.
Position N 22°32' E 119°32'.

Length 228 m; draft 9.8 m.

Type: Cargo ship. MMSI: 266259000.

Date/timePositionNaut miles runAvg speedWind from/ knotsBaromVisibWave heightAir tempDewpointWater temp
2014-Jul-31 11:31N 22°32' E 119°32'45615.2
2014-Jul-30 05:30N 29°33' E 122°49'1611.1
2014-Jul-30 04:03N 29°48' E 122°56'814.0
2014-Jul-30 03:29N 29°55' E 123°00'1413.4
2014-Jul-30 02:25N 30°09' E 123°02'1213.9
2014-Jul-30 01:32N 30°21' E 122°60'1414.5
2014-Jul-30 00:34N 30°35' E 122°58'1515.1
2014-Jul-29 23:34N 30°49' E 122°51'1814.9
2014-Jul-29 22:20N 31°04' E 122°39'1315.0
2014-Jul-29 21:29N 31°06' E 122°25'1313.9
2014-Jul-29 20:32N 31°11' E 122°10'1414.8
2014-Jul-29 19:33N 31°16' E 121°55'1212.3
2014-Jul-29 18:33N 31°19' E 121°41'0 0.2
2014-Jul-29 17:28N 31°19' E 121°41'0 0.0
2014-Jul-29 16:22N 31°19' E 121°41'0 0.0
2014-Jul-29 15:28N 31°19' E 121°41'0 0.0
2014-Jul-29 14:16N 31°19' E 121°41'0 0.0
2014-Jul-29 13:22N 31°19' E 121°41'0 0.0
2014-Jul-29 12:22N 31°19' E 121°41'0 0.0
2014-Jul-29 11:16N 31°19' E 121°41'0 0.0
2014-Jul-29 10:28N 31°19' E 121°41'0 0.0
2014-Jul-29 09:28N 31°19' E 121°41'0 0.0
2014-Jul-29 07:16N 31°19' E 121°41'0 0.0
2014-Jul-29 06:33N 31°19' E 121°41'4 4.3
2014-Jul-29 05:33N 31°18' E 121°46'1111.2
2014-Jul-29 04:33N 31°15' E 121°58'11 9.7
2014-Jul-29 03:23N 31°11' E 122°10'8 9.7
2014-Jul-29 02:31N 31°06' E 122°19'9 7.8
2014-Jul-29 01:18N 31°07' E 122°30'275 7.4
2014-Jul-27 12:15N 35°33' E 121°04'1418.7
2014-Jul-27 11:31N 35°43' E 120°53'1717.3
2014-Jul-27 10:33N 35°57' E 120°41'1515.3
2014-Jul-27 09:33N 36°00' E 120°23'8 8.1
2014-Jul-27 08:33N 36°01' E 120°13'1 0.0
2014-Jul-26 15:11N 35°60' E 120°12'4 5.7
2014-Jul-26 14:33N 36°02' E 120°16'8 7.9
2014-Jul-26 13:33N 36°01' E 120°25'1212.0
2014-Jul-26 12:32N 35°58' E 120°40'1110.8
2014-Jul-26 11:33N 35°56' E 120°53'10 8.6
2014-Jul-26 10:23N 36°01' E 121°04'6 7.2
2014-Jul-26 09:31N 35°59' E 121°12'1 0.8
2014-Jul-26 08:10N 35°60' E 121°13'1 0.3
2014-Jul-26 03:24N 35°58' E 121°13'  
Track history (hours):
 
Tides and Currents Weather Stations Pressure Air Temp Water Temp Dewpoint Dewpoint Depression Visibility Wind Speed Wind Dir Waves Ship Positions

Fedora

Last reported at 2014-Jul-31 11:31 UTC. Time now 2014-Aug-01 13:51 UTC.
Position N 22°32' E 119°32'.

Length 228 m; draft 9.8 m.

Type: Cargo ship. MMSI: 266259000.

Date/timePositionNaut miles runAvg speedWind from/ knotsBaromVisibWave heightAir tempDewpointWater temp
2014-Jul-31 11:31N 22°32' E 119°32'45615.2
2014-Jul-30 05:30N 29°33' E 122°49'1611.1
2014-Jul-30 04:03N 29°48' E 122°56'814.0
2014-Jul-30 03:29N 29°55' E 123°00'1413.4
2014-Jul-30 02:25N 30°09' E 123°02'1213.9
2014-Jul-30 01:32N 30°21' E 122°60'1414.5
2014-Jul-30 00:34N 30°35' E 122°58'1515.1
2014-Jul-29 23:34N 30°49' E 122°51'1814.9
2014-Jul-29 22:20N 31°04' E 122°39'1315.0
2014-Jul-29 21:29N 31°06' E 122°25'1313.9
2014-Jul-29 20:32N 31°11' E 122°10'1414.8
2014-Jul-29 19:33N 31°16' E 121°55'1212.3
2014-Jul-29 18:33N 31°19' E 121°41'0 0.2
2014-Jul-29 17:28N 31°19' E 121°41'0 0.0
2014-Jul-29 16:22N 31°19' E 121°41'0 0.0
2014-Jul-29 15:28N 31°19' E 121°41'0 0.0
2014-Jul-29 14:16N 31°19' E 121°41'0 0.0
2014-Jul-29 13:22N 31°19' E 121°41'0 0.0
2014-Jul-29 12:22N 31°19' E 121°41'0 0.0
2014-Jul-29 11:16N 31°19' E 121°41'0 0.0
2014-Jul-29 10:28N 31°19' E 121°41'0 0.0
2014-Jul-29 09:28N 31°19' E 121°41'0 0.0
2014-Jul-29 07:16N 31°19' E 121°41'0 0.0
2014-Jul-29 06:33N 31°19' E 121°41'4 4.3
2014-Jul-29 05:33N 31°18' E 121°46'1111.2
2014-Jul-29 04:33N 31°15' E 121°58'11 9.7
2014-Jul-29 03:23N 31°11' E 122°10'8 9.7
2014-Jul-29 02:31N 31°06' E 122°19'9 7.8
2014-Jul-29 01:18N 31°07' E 122°30'275 7.4
2014-Jul-27 12:15N 35°33' E 121°04'1418.7
2014-Jul-27 11:31N 35°43' E 120°53'1717.3
2014-Jul-27 10:33N 35°57' E 120°41'1515.3
2014-Jul-27 09:33N 36°00' E 120°23'8 8.1
2014-Jul-27 08:33N 36°01' E 120°13'1 0.0
2014-Jul-26 15:11N 35°60' E 120°12'4 5.7
2014-Jul-26 14:33N 36°02' E 120°16'8 7.9
2014-Jul-26 13:33N 36°01' E 120°25'1212.0
2014-Jul-26 12:32N 35°58' E 120°40'1110.8
2014-Jul-26 11:33N 35°56' E 120°53'10 8.6
2014-Jul-26 10:23N 36°01' E 121°04'6 7.2
2014-Jul-26 09:31N 35°59' E 121°12'1 0.8
2014-Jul-26 08:10N 35°60' E 121°13'1 0.3
2014-Jul-26 03:24N 35°58' E 121°13'  

Dump ship's entire track history